Time;durP1;ratioP1;P1;durP2;ratioP2;P2;SDS_P1;SDS_P2;PMS_P1;PMS_P2;Temp;Humidity;BMP_temperature;BMP_pressure;BME280_temperature;BME280_humidity;BME280_pressure;Samples;Min_cycle;Max_cycle;Signal;HPM_P1;HPM_P2
2021/12/07 00:00:31;;;;;;;3.53;1.07;;;3.70;99.90;;;;;;5093444;28;20027;-81
2021/12/07 00:02:57;;;;;;;1.97;1.03;;;3.60;99.90;;;;;;5093490;28;20017;-82
2021/12/07 00:05:23;;;;;;;2.27;1.17;;;3.60;99.90;;;;;;5093134;28;20020;-82
2021/12/07 00:07:49;;;;;;;2.10;1.10;;;3.60;99.90;;;;;;5094494;28;20073;-83
2021/12/07 00:10:16;;;;;;;3.13;1.10;;;3.60;99.90;;;;;;5094237;28;20504;-84
2021/12/07 00:12:44;;;;;;;3.33;1.23;;;3.50;99.90;;;;;;5106213;28;20044;-83
2021/12/07 00:15:13;;;;;;;3.20;1.10;;;3.50;99.90;;;;;;5114687;28;20123;-83
2021/12/07 00:17:40;;;;;;;2.40;1.30;;;3.50;99.90;;;;;;5095993;28;20027;-83
2021/12/07 00:20:10;;;;;;;1.37;0.97;;;3.40;99.90;;;;;;5114543;28;20023;-82
2021/12/07 00:22:38;;;;;;;1.83;1.00;;;3.40;99.90;;;;;;5095824;28;20051;-81
2021/12/07 00:25:05;;;;;;;2.27;1.00;;;3.30;99.90;;;;;;5096274;28;20028;-82
2021/12/07 00:27:31;;;;;;;1.40;1.10;;;3.30;99.90;;;;;;5113937;28;20027;-83
2021/12/07 00:29:56;;;;;;;1.77;1.10;;;3.30;99.90;;;;;;5096657;28;20072;-83
2021/12/07 00:32:35;;;;;;;1.70;1.10;;;3.30;99.90;;;;;;5096309;28;20081;-83
2021/12/07 00:35:33;;;;;;;2.40;1.10;;;3.30;99.90;;;;;;5096757;28;20024;-81
2021/12/07 00:38:01;;;;;;;2.17;1.10;;;3.20;99.90;;;;;;5114628;28;20066;-82
2021/12/07 00:40:26;;;;;;;2.53;1.10;;;3.20;99.90;;;;;;5095981;28;20024;-83
2021/12/07 00:42:52;;;;;;;2.10;1.03;;;3.20;99.90;;;;;;5100346;28;20460;-83
2021/12/07 00:45:21;;;;;;;2.20;1.00;;;3.20;99.90;;;;;;5100254;28;20042;-84
2021/12/07 00:47:50;;;;;;;1.67;1.10;;;3.10;99.90;;;;;;5100752;28;20046;-81
2021/12/07 00:50:17;;;;;;;5.03;1.60;;;3.20;99.90;;;;;;5100223;28;20020;-82
2021/12/07 00:52:43;;;;;;;3.17;1.30;;;3.20;99.90;;;;;;5099881;28;20023;-83
2021/12/07 00:55:12;;;;;;;2.60;1.17;;;3.20;99.90;;;;;;5117851;28;20118;-82
2021/12/07 00:57:38;;;;;;;3.47;1.10;;;3.30;99.90;;;;;;5100155;28;20024;-83
2021/12/07 01:00:08;;;;;;;1.67;0.90;;;3.30;99.90;;;;;;5100876;28;20035;-82
2021/12/07 01:02:34;;;;;;;2.57;1.03;;;3.30;99.90;;;;;;5118553;28;20019;-82
2021/12/07 01:05:08;;;;;;;2.53;1.13;;;3.30;99.90;;;;;;5100483;28;20119;-82
2021/12/07 01:07:56;;;;;;;1.83;0.93;;;3.30;99.90;;;;;;5100044;28;20028;-82
2021/12/07 01:26:50;;;;;;;1.83;1.10;;;3.30;99.90;;;;;;5097588;28;20097;-82
2021/12/07 01:29:18;;;;;;;1.47;1.10;;;3.40;99.90;;;;;;5097820;28;20079;-83
2021/12/07 01:37:25;;;;;;;1.27;0.90;;;3.40;99.90;;;;;;5097369;28;20020;-83
2021/12/07 01:45:19;;;;;;;3.03;1.37;;;3.50;99.90;;;;;;5097217;28;20043;-82
2021/12/07 02:01:00;;;;;;;1.97;1.20;;;3.60;99.90;;;;;;5117289;28;20459;-82
2021/12/07 02:03:26;;;;;;;2.70;1.13;;;3.60;99.90;;;;;;5116526;28;20020;-83
2021/12/07 02:05:53;;;;;;;3.40;1.30;;;3.60;99.90;;;;;;5099201;28;20024;-83
2021/12/07 02:08:18;;;;;;;2.63;1.20;;;3.50;99.90;;;;;;5099121;28;20024;-82
2021/12/07 02:10:45;;;;;;;2.27;1.30;;;3.50;99.90;;;;;;5098699;28;20345;-82
2021/12/07 02:15:55;;;;;;;3.10;1.30;;;3.50;99.90;;;;;;5117233;28;20038;-83
2021/12/07 02:18:21;;;;;;;2.40;1.30;;;3.50;99.90;;;;;;5116732;28;20023;-85
2021/12/07 02:20:48;;;;;;;1.87;1.20;;;3.60;99.90;;;;;;5098839;28;20022;-83
2021/12/07 02:23:13;;;;;;;1.93;1.30;;;3.60;99.90;;;;;;5098638;28;20027;-83
2021/12/07 02:25:39;;;;;;;2.23;1.10;;;3.60;99.90;;;;;;5098188;28;20456;-83
2021/12/07 02:28:11;;;;;;;3.93;1.30;;;3.70;99.90;;;;;;5091131;28;20097;-83
2021/12/07 02:30:37;;;;;;;3.53;1.33;;;3.70;99.90;;;;;;5096229;28;20149;-83
2021/12/07 02:33:03;;;;;;;1.70;1.17;;;3.70;99.90;;;;;;5078410;28;20111;-83
2021/12/07 02:35:28;;;;;;;3.00;1.40;;;3.70;99.90;;;;;;5077798;28;20338;-83
2021/12/07 02:37:56;;;;;;;2.87;1.20;;;3.80;99.90;;;;;;5078399;28;20024;-83
2021/12/07 02:40:22;;;;;;;4.10;1.40;;;3.80;99.90;;;;;;5078313;28;20051;-85
2021/12/07 02:42:48;;;;;;;2.00;1.40;;;3.80;99.90;;;;;;5096192;28;20020;-83
2021/12/07 02:45:17;;;;;;;2.03;1.20;;;3.80;99.90;;;;;;5078324;28;20081;-82
2021/12/07 02:47:42;;;;;;;1.97;1.33;;;3.80;99.90;;;;;;5077821;28;20035;-83
2021/12/07 02:50:09;;;;;;;1.63;1.07;;;3.70;99.90;;;;;;5077946;28;20020;-82
2021/12/07 02:52:35;;;;;;;2.83;1.33;;;3.70;99.90;;;;;;5095494;28;20051;-83
2021/12/07 02:55:02;;;;;;;2.00;1.50;;;3.70;99.90;;;;;;5083534;28;20051;-82
2021/12/07 02:57:27;;;;;;;2.17;1.30;;;3.70;99.90;;;;;;5080758;28;20441;-83
2021/12/07 03:00:16;;;;;;;2.33;1.30;;;3.70;99.90;;;;;;5078280;28;20027;-83
2021/12/07 03:02:52;;;;;;;3.97;1.27;;;3.70;99.90;;;;;;5077591;28;20027;-83
2021/12/07 03:08:23;;;;;;;1.77;1.10;;;3.70;99.90;;;;;;5095681;28;20081;-83
2021/12/07 03:27:37;;;;;;;1.83;1.10;;;3.90;99.90;;;;;;5114851;28;20544;-83
2021/12/07 03:30:06;;;;;;;2.50;1.30;;;3.90;99.90;;;;;;5115487;28;20065;-82
2021/12/07 03:32:31;;;;;;;2.10;1.20;;;3.80;99.90;;;;;;5097052;28;20111;-83
2021/12/07 03:34:57;;;;;;;2.60;1.23;;;3.80;99.90;;;;;;5097651;28;20438;-82
2021/12/07 03:37:23;;;;;;;2.30;1.30;;;3.80;99.90;;;;;;5115373;28;20018;-82
2021/12/07 03:39:48;;;;;;;2.93;1.00;;;3.80;99.90;;;;;;5114910;28;20015;-82
2021/12/07 03:42:14;;;;;;;1.63;0.97;;;3.80;99.90;;;;;;5114970;28;20032;-81
2021/12/07 03:44:40;;;;;;;1.67;1.00;;;3.80;99.90;;;;;;5114743;28;20028;-82
2021/12/07 03:47:05;;;;;;;0.70;0.40;;;3.90;99.90;;;;;;5115273;28;20031;-82
2021/12/07 03:49:31;;;;;;;1.77;0.40;;;3.90;99.90;;;;;;5097236;28;20452;-82
2021/12/07 03:51:57;;;;;;;2.87;0.60;;;4.00;99.90;;;;;;5115125;28;20030;-81
2021/12/07 03:54:22;;;;;;;2.43;0.50;;;4.00;99.90;;;;;;5114836;28;20028;-83
2021/12/07 03:56:48;;;;;;;1.20;0.57;;;4.00;99.90;;;;;;5114570;28;20027;-82
2021/12/07 03:59:14;;;;;;;2.63;0.90;;;4.10;99.90;;;;;;5115109;28;20023;-82
2021/12/07 04:01:39;;;;;;;2.30;0.90;;;4.00;99.90;;;;;;5114705;28;20016;-83
2021/12/07 04:04:05;;;;;;;1.70;0.70;;;4.00;99.90;;;;;;5114842;28;20051;-82
2021/12/07 04:06:31;;;;;;;1.27;0.80;;;4.00;99.90;;;;;;5096599;28;20107;-83
2021/12/07 04:08:56;;;;;;;3.37;1.00;;;4.00;99.90;;;;;;5096972;28;20058;-82
2021/12/07 04:11:22;;;;;;;1.00;0.83;;;4.00;99.90;;;;;;5097108;28;20432;-81
2021/12/07 04:13:48;;;;;;;3.37;1.10;;;3.90;99.90;;;;;;5114272;28;20357;-83
2021/12/07 04:16:15;;;;;;;1.77;1.07;;;4.00;99.90;;;;;;5096222;28;20051;-83
2021/12/07 04:18:41;;;;;;;3.00;1.00;;;4.00;99.90;;;;;;5096224;28;20023;-83
2021/12/07 04:21:07;;;;;;;2.63;1.00;;;4.00;99.90;;;;;;5096772;28;20023;-82
2021/12/07 04:23:34;;;;;;;1.57;0.97;;;4.00;99.90;;;;;;5095914;28;20372;-83
2021/12/07 04:26:03;;;;;;;1.87;0.90;;;4.00;99.90;;;;;;5110185;28;20460;-83
2021/12/07 04:28:29;;;;;;;1.37;0.80;;;4.00;99.90;;;;;;5095840;28;20019;-84
2021/12/07 04:30:54;;;;;;;4.00;1.47;;;4.10;99.90;;;;;;5096623;28;20106;-82
2021/12/07 04:33:20;;;;;;;2.93;1.10;;;4.10;99.90;;;;;;5096534;28;20034;-83
2021/12/07 04:35:48;;;;;;;3.57;1.10;;;4.10;99.90;;;;;;5114272;28;20016;-83
2021/12/07 04:38:15;;;;;;;4.10;1.10;;;4.10;99.90;;;;;;5096395;28;20100;-82
2021/12/07 04:40:41;;;;;;;2.30;1.30;;;4.10;99.90;;;;;;5095953;28;20027;-82
2021/12/07 04:43:07;;;;;;;3.23;1.20;;;4.10;99.90;;;;;;5096307;28;20038;-83
2021/12/07 04:59:01;;;;;;;3.50;1.27;;;4.20;99.90;;;;;;5094245;28;20062;-83
2021/12/07 05:01:26;;;;;;;3.27;1.10;;;4.20;99.90;;;;;;5076565;28;20024;-82
2021/12/07 05:03:56;;;;;;;2.73;1.10;;;4.20;99.90;;;;;;5075686;28;20024;-83
2021/12/07 05:06:26;;;;;;;3.73;1.00;;;4.20;99.90;;;;;;5076116;28;20028;-81
2021/12/07 05:08:58;;;;;;;1.47;0.97;;;4.30;99.90;;;;;;5075682;28;20024;-83
2021/12/07 05:11:32;;;;;;;2.37;1.23;;;4.30;99.90;;;;;;5093902;28;20031;-82
2021/12/07 05:14:43;;;;;;;2.63;1.00;;;4.30;99.90;;;;;;5075547;28;20169;-83
2021/12/07 05:38:30;;;;;;;4.33;0.90;;;4.40;99.90;;;;;;5117803;28;20081;-83
2021/12/07 05:40:56;;;;;;;2.33;0.80;;;4.50;99.90;;;;;;5098982;28;20368;-83
2021/12/07 05:43:22;;;;;;;6.17;1.10;;;4.50;99.90;;;;;;5099544;28;20028;-83
2021/12/07 05:45:48;;;;;;;1.70;0.90;;;4.50;99.90;;;;;;5117193;28;20024;-83
2021/12/07 05:48:14;;;;;;;2.70;0.97;;;4.50;99.90;;;;;;5099676;28;20112;-83
2021/12/07 05:50:41;;;;;;;6.23;1.00;;;4.50;99.90;;;;;;5098691;28;20468;-83
2021/12/07 05:53:09;;;;;;;3.57;0.93;;;4.50;99.90;;;;;;5099331;28;20111;-82
2021/12/07 05:55:36;;;;;;;4.70;1.00;;;4.50;99.90;;;;;;5116733;28;20055;-85
2021/12/07 05:58:03;;;;;;;1.27;0.70;;;4.50;99.90;;;;;;5099153;28;20028;-83
2021/12/07 06:00:31;;;;;;;5.10;1.10;;;4.60;99.90;;;;;;5099258;28;20058;-82
2021/12/07 06:03:00;;;;;;;4.40;1.03;;;4.50;99.90;;;;;;5098821;28;20038;-83
2021/12/07 06:05:30;;;;;;;1.63;0.80;;;4.60;99.90;;;;;;5099105;28;20019;-82
2021/12/07 06:07:56;;;;;;;3.60;0.90;;;4.50;99.90;;;;;;5116513;28;20030;-82
2021/12/07 06:10:23;;;;;;;1.93;0.90;;;4.50;99.90;;;;;;5099190;28;20476;-82
2021/12/07 06:12:48;;;;;;;2.63;0.83;;;4.50;99.90;;;;;;5097897;28;20079;-81
2021/12/07 06:15:18;;;;;;;2.53;0.80;;;4.50;99.90;;;;;;5098764;28;20075;-82
2021/12/07 06:17:44;;;;;;;2.50;0.90;;;4.50;99.90;;;;;;5097769;28;20024;-83
2021/12/07 06:20:10;;;;;;;2.47;0.90;;;4.50;99.90;;;;;;5100103;28;20027;-81
2021/12/07 06:22:35;;;;;;;6.63;1.23;;;4.50;99.90;;;;;;5101781;28;20028;-83
2021/12/07 06:25:02;;;;;;;4.87;1.07;;;4.50;99.90;;;;;;5098129;28;20031;-82
2021/12/07 06:27:28;;;;;;;4.33;0.90;;;4.50;99.90;;;;;;5095927;28;20027;-82
2021/12/07 06:29:54;;;;;;;4.87;1.10;;;4.50;99.90;;;;;;5077868;28;20174;-83
2021/12/07 06:32:20;;;;;;;6.73;1.20;;;4.50;99.90;;;;;;5096146;28;20492;-82
2021/12/07 06:34:45;;;;;;;4.40;0.90;;;4.50;99.90;;;;;;5077753;28;20032;-82
2021/12/07 06:37:11;;;;;;;1.63;1.00;;;4.50;99.90;;;;;;5078022;28;20117;-83
2021/12/07 06:39:37;;;;;;;4.63;0.80;;;4.50;99.90;;;;;;5077383;28;20032;-84
2021/12/07 06:42:03;;;;;;;3.60;1.30;;;4.40;99.90;;;;;;5077586;28;20035;-82
2021/12/07 06:44:29;;;;;;;3.63;1.33;;;4.40;99.90;;;;;;5078092;28;20128;-82
2021/12/07 06:46:54;;;;;;;4.60;1.00;;;4.40;99.90;;;;;;5077527;28;20051;-81
2021/12/07 06:49:21;;;;;;;5.10;1.37;;;4.40;99.90;;;;;;5078247;28;20029;-80
2021/12/07 06:51:48;;;;;;;4.97;1.00;;;4.40;99.90;;;;;;5095485;28;20024;-82
2021/12/07 06:54:14;;;;;;;4.27;1.00;;;4.40;99.90;;;;;;5095605;28;20031;-83
2021/12/07 06:56:40;;;;;;;5.53;1.33;;;4.30;99.90;;;;;;5096694;28;20050;-86
2021/12/07 06:59:06;;;;;;;2.40;0.80;;;4.30;99.90;;;;;;5116234;28;20024;-83
2021/12/07 07:01:32;;;;;;;1.77;0.87;;;4.30;99.90;;;;;;5098066;28;20092;-82
2021/12/07 07:03:59;;;;;;;1.70;0.70;;;4.30;99.90;;;;;;5097527;28;20028;-82
2021/12/07 07:06:25;;;;;;;3.37;0.93;;;4.20;99.90;;;;;;5097987;28;20507;-82
2021/12/07 07:08:50;;;;;;;4.80;0.83;;;4.20;99.90;;;;;;5097655;28;20031;-83
2021/12/07 07:11:17;;;;;;;1.93;1.00;;;4.20;99.90;;;;;;5115985;28;20464;-83
2021/12/07 07:13:44;;;;;;;5.60;1.40;;;4.10;99.90;;;;;;5094596;28;20152;-83
2021/12/07 07:16:10;;;;;;;3.20;1.17;;;4.10;99.90;;;;;;5077309;28;20056;-82
2021/12/07 07:18:35;;;;;;;7.47;1.93;;;4.10;99.90;;;;;;5076897;28;20055;-82
2021/12/07 07:21:02;;;;;;;5.53;1.27;;;4.10;99.90;;;;;;5076750;28;20028;-82
2021/12/07 07:23:29;;;;;;;4.57;1.30;;;4.20;99.90;;;;;;5095345;28;20063;-82
2021/12/07 07:25:55;;;;;;;7.63;1.70;;;4.10;99.90;;;;;;5068418;28;20024;-82
2021/12/07 07:28:26;;;;;;;5.00;1.30;;;4.20;99.90;;;;;;5077262;28;20122;-82
2021/12/07 07:30:52;;;;;;;4.73;1.20;;;4.20;99.90;;;;;;5076588;28;20038;-82
2021/12/07 07:33:19;;;;;;;2.17;1.40;;;4.30;99.90;;;;;;5076924;28;20140;-82
2021/12/07 07:35:45;;;;;;;2.93;1.00;;;4.30;99.90;;;;;;5076763;28;20088;-82
2021/12/07 07:38:11;;;;;;;8.40;1.20;;;4.40;99.90;;;;;;5077375;28;20119;-81
2021/12/07 07:40:36;;;;;;;7.73;1.20;;;4.40;99.90;;;;;;5076638;28;20023;-82
2021/12/07 07:43:03;;;;;;;4.90;0.90;;;4.40;99.90;;;;;;5076472;28;20033;-82
2021/12/07 07:45:29;;;;;;;2.27;0.90;;;4.50;99.90;;;;;;5076982;28;20028;-83
2021/12/07 07:47:55;;;;;;;4.60;1.17;;;4.50;99.90;;;;;;5076705;28;20498;-82
2021/12/07 07:50:21;;;;;;;5.87;0.90;;;4.50;99.90;;;;;;5076536;28;20107;-82
2021/12/07 07:52:47;;;;;;;6.30;0.93;;;4.60;99.90;;;;;;5076307;28;20459;-83
2021/12/07 07:55:13;;;;;;;1.93;0.87;;;4.60;99.90;;;;;;5094425;28;20028;-82
2021/12/07 07:57:40;;;;;;;4.80;1.10;;;4.60;99.90;;;;;;5076510;28;20073;-85
2021/12/07 08:00:10;;;;;;;7.13;1.17;;;4.70;99.90;;;;;;5094698;28;20058;-82
2021/12/07 08:02:36;;;;;;;5.80;1.30;;;4.70;99.90;;;;;;5094572;28;20016;-81
2021/12/07 08:05:02;;;;;;;5.50;1.57;;;4.70;99.90;;;;;;5076099;28;20020;-82
2021/12/07 08:07:27;;;;;;;3.47;0.93;;;4.70;99.90;;;;;;5076793;28;20020;-82
2021/12/07 08:09:53;;;;;;;5.53;0.73;;;4.70;99.90;;;;;;5093991;28;20119;-82
2021/12/07 08:12:19;;;;;;;5.83;1.73;;;4.80;99.90;;;;;;5080975;28;20055;-82
2021/12/07 08:14:45;;;;;;;6.07;1.67;;;4.70;99.90;;;;;;5092737;28;20036;-82
2021/12/07 08:17:10;;;;;;;4.37;1.20;;;4.80;99.90;;;;;;5093271;28;20072;-83
2021/12/07 08:19:37;;;;;;;7.70;1.30;;;4.80;99.90;;;;;;5093588;28;20016;-82
2021/12/07 08:22:03;;;;;;;6.57;1.30;;;4.80;99.90;;;;;;5092999;28;20023;-83
2021/12/07 08:24:29;;;;;;;7.10;1.10;;;4.80;99.90;;;;;;5090949;28;20023;-83
2021/12/07 08:26:54;;;;;;;2.63;0.90;;;4.80;99.90;;;;;;5072142;28;20096;-83
2021/12/07 08:29:20;;;;;;;10.57;1.57;;;4.90;99.90;;;;;;5074217;28;20139;-81
2021/12/07 08:31:46;;;;;;;3.80;1.30;;;4.90;99.90;;;;;;5073543;28;20024;-83
2021/12/07 08:34:12;;;;;;;8.87;2.00;;;4.90;99.90;;;;;;5073021;28;20036;-82
2021/12/07 08:36:37;;;;;;;7.87;1.77;;;4.90;99.90;;;;;;5072985;28;20107;-82
2021/12/07 08:39:05;;;;;;;3.87;1.23;;;4.90;99.90;;;;;;5073219;28;20092;-82
2021/12/07 08:41:30;;;;;;;8.20;1.00;;;5.00;99.90;;;;;;5073745;28;20055;-82
2021/12/07 08:43:56;;;;;;;5.73;1.27;;;5.00;99.90;;;;;;5072326;28;20025;-82
2021/12/07 08:46:22;;;;;;;4.33;1.00;;;5.00;99.90;;;;;;5073088;28;20115;-82
2021/12/07 08:48:48;;;;;;;6.10;1.10;;;5.00;99.90;;;;;;5072366;28;20028;-82
2021/12/07 08:51:15;;;;;;;4.93;1.00;;;5.00;99.90;;;;;;5073087;28;20020;-82
2021/12/07 08:53:52;;;;;;;5.77;1.20;;;5.00;99.90;;;;;;5073955;28;20055;-81
2021/12/07 09:01:47;;;;;;;7.63;1.30;;;5.10;99.90;;;;;;5093759;28;20066;-88
2021/12/07 09:04:17;;;;;;;7.43;1.17;;;5.10;99.90;;;;;;5097139;28;20111;-81
2021/12/07 09:06:43;;;;;;;7.60;1.57;;;5.20;99.90;;;;;;5096646;28;20452;-82
2021/12/07 09:09:09;;;;;;;5.07;1.27;;;5.20;99.90;;;;;;5098054;28;20027;-82
2021/12/07 09:11:35;;;;;;;3.83;1.07;;;5.20;99.90;;;;;;5098569;28;20028;-82
2021/12/07 09:14:01;;;;;;;7.30;1.40;;;5.20;99.90;;;;;;5117912;28;20091;-82
2021/12/07 09:16:27;;;;;;;8.03;1.33;;;5.30;99.90;;;;;;5118110;28;20084;-82
2021/12/07 09:18:52;;;;;;;9.37;1.40;;;5.30;99.90;;;;;;5117943;28;20022;-82
2021/12/07 09:21:19;;;;;;;5.93;0.93;;;5.40;99.90;;;;;;5100062;28;20483;-82
2021/12/07 09:23:46;;;;;;;3.43;1.30;;;5.40;99.90;;;;;;5082054;28;20032;-83
2021/12/07 09:26:12;;;;;;;7.33;1.53;;;5.40;99.90;;;;;;5093052;28;20020;-90
2021/12/07 09:28:39;;;;;;;6.00;1.40;;;5.40;99.90;;;;;;5117627;28;20067;-91
2021/12/07 09:31:06;;;;;;;5.70;1.50;;;5.50;99.90;;;;;;5098066;28;20035;-89
2021/12/07 09:33:32;;;;;;;8.33;1.60;;;5.60;99.90;;;;;;5098569;28;20032;-81
2021/12/07 09:35:58;;;;;;;8.23;1.50;;;5.60;99.90;;;;;;5099248;28;20019;-80
2021/12/07 09:38:24;;;;;;;4.33;1.40;;;5.60;99.90;;;;;;5117657;28;20536;-81
2021/12/07 09:40:50;;;;;;;4.23;1.10;;;5.50;99.90;;;;;;5098977;28;20016;-81
2021/12/07 09:43:16;;;;;;;8.53;1.50;;;5.50;99.90;;;;;;5099619;28;20035;-81
2021/12/07 09:45:43;;;;;;;6.10;1.60;;;5.60;99.90;;;;;;5117890;28;20016;-80
2021/12/07 09:48:12;;;;;;;5.87;1.07;;;5.60;99.90;;;;;;5116957;28;20020;-81
2021/12/07 09:50:41;;;;;;;6.93;1.67;;;5.60;99.90;;;;;;5116704;28;20023;-81
2021/12/07 09:53:11;;;;;;;7.83;1.97;;;5.60;99.90;;;;;;5098496;28;20019;-81
2021/12/07 09:55:40;;;;;;;4.10;1.47;;;5.60;99.90;;;;;;5098639;28;20034;-81
2021/12/07 09:58:06;;;;;;;7.73;1.40;;;5.60;99.90;;;;;;5098711;28;20019;-81
2021/12/07 10:00:34;;;;;;;9.20;1.47;;;5.60;99.90;;;;;;5116553;28;20143;-81
2021/12/07 10:03:00;;;;;;;7.77;1.33;;;5.60;99.90;;;;;;5116474;28;20020;-81
2021/12/07 10:05:30;;;;;;;4.80;1.20;;;5.60;99.90;;;;;;5117017;28;20112;-82
2021/12/07 10:07:56;;;;;;;5.20;1.50;;;5.60;99.90;;;;;;5098680;28;20019;-82
2021/12/07 10:10:25;;;;;;;6.63;1.30;;;5.60;99.90;;;;;;5098814;28;20031;-82
2021/12/07 10:12:51;;;;;;;9.10;1.40;;;5.60;99.90;;;;;;5098031;28;20036;-82
2021/12/07 10:15:18;;;;;;;8.07;2.17;;;5.60;99.90;;;;;;5097969;28;20028;-82
2021/12/07 10:17:57;;;;;;;8.30;1.33;;;5.60;99.90;;;;;;5098801;28;20031;-81
2021/12/07 10:20:45;;;;;;;5.90;1.57;;;5.70;99.90;;;;;;5116913;28;20066;-82
2021/12/07 10:23:14;;;;;;;5.60;1.40;;;5.70;99.90;;;;;;5086378;28;20066;-82
2021/12/07 10:25:46;;;;;;;9.40;1.57;;;5.80;99.90;;;;;;5088788;28;20016;-82
2021/12/07 10:28:24;;;;;;;6.67;1.20;;;5.90;99.90;;;;;;5110979;28;20024;-82
2021/12/07 10:30:50;;;;;;;5.33;1.10;;;6.00;99.90;;;;;;5098061;28;20043;-82
2021/12/07 10:33:32;;;;;;;3.10;1.00;;;6.10;99.90;;;;;;5116403;28;20467;-82
2021/12/07 10:36:10;;;;;;;6.88;1.27;;;6.30;99.90;;;;;;5097674;28;20474;-82
2021/12/07 10:38:37;;;;;;;5.50;1.30;;;6.40;99.90;;;;;;5116179;28;20020;-81
2021/12/07 10:41:09;;;;;;;6.90;1.80;;;6.40;99.90;;;;;;5097822;28;20034;-82
2021/12/07 10:44:02;;;;;;;9.03;1.33;;;6.40;99.90;;;;;;5098576;28;20036;-81
2021/12/07 10:46:30;;;;;;;6.33;1.20;;;6.40;99.90;;;;;;5098555;28;20043;-81
2021/12/07 10:49:21;;;;;;;9.27;1.50;;;6.40;99.90;;;;;;5096844;28;20031;-81
2021/12/07 10:51:58;;;;;;;9.00;3.50;;;6.30;99.80;;;;;;5091234;28;20536;-82
2021/12/07 10:54:25;;;;;;;6.03;1.50;;;6.20;99.90;;;;;;5076379;28;20024;-82
2021/12/07 10:56:52;;;;;;;4.10;1.30;;;6.30;99.90;;;;;;5104745;28;20023;-81
2021/12/07 10:59:18;;;;;;;6.03;1.30;;;6.30;99.80;;;;;;5078278;28;20436;-81
2021/12/07 11:01:47;;;;;;;10.03;1.53;;;6.40;99.90;;;;;;5112603;28;20020;-81
2021/12/07 11:04:31;;;;;;;4.30;0.67;;;6.40;99.90;;;;;;5094907;28;20106;-81
2021/12/07 11:07:18;;;;;;;3.57;1.00;;;6.50;99.00;;;;;;5111255;28;20020;-82
2021/12/07 11:10:17;;;;;;;7.03;1.20;;;6.60;99.00;;;;;;5112796;28;20020;-80
2021/12/07 11:13:02;;;;;;;3.80;0.80;;;6.70;99.20;;;;;;5095394;28;20047;-80
2021/12/07 11:15:33;;;;;;;5.20;1.00;;;6.70;98.20;;;;;;5090119;28;20047;-80
2021/12/07 11:18:05;;;;;;;8.03;1.13;;;6.80;98.60;;;;;;5084756;28;20032;-81
2021/12/07 11:20:32;;;;;;;7.53;1.10;;;6.70;98.20;;;;;;5081744;28;20032;-81
2021/12/07 11:23:06;;;;;;;5.13;1.30;;;6.70;97.90;;;;;;5088322;28;20380;-82
2021/12/07 11:31:36;;;;;;;7.63;0.90;;;6.70;97.00;;;;;;5109734;28;20089;-82
2021/12/07 11:34:10;;;;;;;5.03;0.67;;;6.70;96.50;;;;;;5103174;28;20040;-80
2021/12/07 11:37:03;;;;;;;2.33;0.70;;;6.80;96.60;;;;;;5106817;28;20028;-80
2021/12/07 11:39:36;;;;;;;3.20;1.00;;;6.90;96.50;;;;;;5079809;28;20384;-81
2021/12/07 11:42:10;;;;;;;2.30;0.80;;;6.90;96.30;;;;;;5104953;28;20480;-82
2021/12/07 11:44:49;;;;;;;3.47;0.87;;;6.90;95.90;;;;;;5095301;28;20088;-81
2021/12/07 11:47:16;;;;;;;5.63;0.80;;;6.90;95.90;;;;;;5093814;28;20085;-81
2021/12/07 11:49:42;;;;;;;1.33;0.60;;;6.90;96.40;;;;;;5106618;28;20071;-82
2021/12/07 11:52:09;;;;;;;3.50;0.60;;;7.00;96.50;;;;;;5079904;28;20436;-81
2021/12/07 11:54:41;;;;;;;3.90;0.73;;;7.10;96.30;;;;;;5106275;28;20047;-81
2021/12/07 11:57:08;;;;;;;;;;;7.20;94.90;;;;;;5078814;28;20077;-81
2021/12/07 11:59:34;;;;;;;3.73;0.80;;;7.40;94.30;;;;;;5107405;28;19965;-80
2021/12/07 12:02:00;;;;;;;4.03;0.70;;;7.50;94.10;;;;;;5102840;28;20515;-80
2021/12/07 12:04:26;;;;;;;2.27;0.60;;;7.60;93.40;;;;;;5083222;28;20032;-81
2021/12/07 12:06:55;;;;;;;3.85;0.68;;;7.70;93.80;;;;;;5112819;28;20023;-82
2021/12/07 12:09:23;;;;;;;1.70;0.80;;;7.80;93.50;;;;;;5094749;28;20018;-81
2021/12/07 12:12:11;;;;;;;4.77;0.83;;;8.00;93.20;;;;;;5089919;28;20040;-81
2021/12/07 12:14:41;;;;;;;5.65;0.70;;;8.00;91.70;;;;;;5113021;28;20085;-81
2021/12/07 12:17:31;;;;;;;2.50;0.83;;;8.20;91.80;;;;;;5093315;28;20020;-81
2021/12/07 12:20:26;;;;;;;1.67;0.50;;;8.30;92.10;;;;;;5102177;28;20016;-82
2021/12/07 12:23:02;;;;;;;3.50;0.60;;;8.40;91.30;;;;;;5084075;28;20027;-82
2021/12/07 12:25:28;;;;;;;5.03;0.93;;;8.20;90.70;;;;;;5084301;28;20023;-82
2021/12/07 12:27:56;;;;;;;2.05;0.90;;;8.10;92.10;;;;;;5074204;28;20069;-82
2021/12/07 12:30:27;;;;;;;8.15;1.00;;;8.10;91.70;;;;;;5076628;28;20032;-81
2021/12/07 12:33:09;;;;;;;2.35;0.70;;;8.00;91.40;;;;;;5090598;28;20111;-82
2021/12/07 12:35:44;;;;;;;4.78;0.70;;;8.00;91.40;;;;;;5094557;28;20066;-81
2021/12/07 12:38:22;;;;;;;3.05;0.95;;;8.00;91.90;;;;;;5082029;28;20028;-81
2021/12/07 12:40:58;;;;;;;5.45;0.68;;;8.10;91.50;;;;;;5100760;28;20038;-81
2021/12/07 12:43:51;;;;;;;4.50;0.90;;;8.20;91.10;;;;;;5112556;28;20099;-82
2021/12/07 12:46:24;;;;;;;2.60;0.57;;;8.20;91.60;;;;;;5093791;28;20028;-81
2021/12/07 12:48:55;;;;;;;4.00;0.73;;;8.20;92.00;;;;;;5093266;28;20023;-81
2021/12/07 12:51:22;;;;;;;3.80;0.70;;;8.20;91.90;;;;;;5073756;28;20024;-82
2021/12/07 12:53:49;;;;;;;7.07;0.98;;;8.40;91.90;;;;;;5079841;28;20047;-82
2021/12/07 12:56:17;;;;;;;3.65;0.80;;;8.50;91.30;;;;;;5105827;28;20492;-82
2021/12/07 12:58:48;;;;;;;5.72;1.25;;;8.70;90.60;;;;;;5095683;28;20036;-82
2021/12/07 13:01:30;;;;;;;3.22;0.55;;;8.90;90.10;;;;;;5088847;28;20658;-82
2021/12/07 13:04:05;;;;;;;3.75;0.98;;;9.00;89.80;;;;;;5076030;28;20040;-83
2021/12/07 13:06:34;;;;;;;3.92;0.68;;;9.10;89.10;;;;;;5073369;28;20464;-81
2021/12/07 13:09:20;;;;;;;6.40;0.68;;;9.20;88.00;;;;;;5073314;28;20028;-83
2021/12/07 13:11:57;;;;;;;4.97;0.70;;;9.00;85.90;;;;;;5087443;28;20047;-87
2021/12/07 13:14:23;;;;;;;1.60;0.50;;;8.80;89.00;;;;;;5078955;28;20072;-84
2021/12/07 13:17:19;;;;;;;3.65;0.70;;;8.90;88.50;;;;;;5075510;28;20062;-82
2021/12/07 13:20:11;;;;;;;4.70;0.70;;;8.90;86.70;;;;;;5091824;28;20414;-86
2021/12/07 13:22:54;;;;;;;1.27;0.70;;;8.80;87.80;;;;;;5086740;28;20020;-82
2021/12/07 13:25:29;;;;;;;5.38;1.20;;;8.90;86.40;;;;;;5078407;28;20028;-82
2021/12/07 13:28:05;;;;;;;3.72;1.00;;;9.10;87.30;;;;;;5091950;28;20032;-83
2021/12/07 13:30:44;;;;;;;6.32;0.70;;;9.20;86.70;;;;;;5106716;28;20023;-82
2021/12/07 13:33:17;;;;;;;5.00;1.15;;;9.30;83.40;;;;;;5094185;28;20024;-82
2021/12/07 13:35:44;;;;;;;2.33;0.70;;;9.00;84.00;;;;;;5087685;28;20082;-82
2021/12/07 13:38:20;;;;;;;3.15;0.70;;;9.20;85.10;;;;;;5085359;28;20184;-83
2021/12/07 13:40:49;;;;;;;2.53;0.80;;;9.30;82.70;;;;;;5113221;28;20024;-82
2021/12/07 13:43:35;;;;;;;2.83;0.50;;;9.30;82.90;;;;;;5086960;28;20043;-82
2021/12/07 13:46:13;;;;;;;2.88;0.80;;;9.30;82.90;;;;;;5082969;28;20028;-81
2021/12/07 13:48:40;;;;;;;3.92;0.70;;;9.30;81.90;;;;;;5090170;28;20150;-81
2021/12/07 13:51:06;;;;;;;6.95;0.90;;;9.20;82.20;;;;;;5092130;28;20031;-83
2021/12/07 13:53:35;;;;;;;7.82;1.10;;;9.10;81.50;;;;;;5086179;28;20404;-81
2021/12/07 13:56:01;;;;;;;5.90;0.90;;;9.10;81.60;;;;;;5085167;28;20035;-82
2021/12/07 13:58:26;;;;;;;3.40;0.65;;;9.00;82.30;;;;;;5087637;28;20024;-82
2021/12/07 14:00:52;;;;;;;5.10;0.82;;;8.80;82.50;;;;;;5099358;28;20505;-82
2021/12/07 14:03:19;;;;;;;5.20;0.80;;;8.70;81.60;;;;;;5105473;28;20016;-82
2021/12/07 14:05:46;;;;;;;2.50;0.60;;;8.70;83.00;;;;;;5076627;28;20118;-81
2021/12/07 14:08:15;;;;;;;3.08;0.70;;;8.70;83.60;;;;;;5084324;28;20192;-82
2021/12/07 14:10:53;;;;;;;3.50;0.70;;;8.60;84.10;;;;;;5095247;28;20028;-81
2021/12/07 14:13:21;;;;;;;2.05;0.47;;;8.50;84.70;;;;;;5080321;28;20051;-82
2021/12/07 14:15:50;;;;;;;3.63;1.63;;;8.50;84.90;;;;;;5078697;28;20050;-82
2021/12/07 14:18:19;;;;;;;3.58;0.70;;;8.40;85.00;;;;;;5090559;28;20024;-82
2021/12/07 14:20:48;;;;;;;2.95;0.68;;;8.40;85.00;;;;;;5114190;28;20034;-82
2021/12/07 14:23:25;;;;;;;1.52;0.77;;;8.30;85.00;;;;;;5084163;28;20015;-82
2021/12/07 14:26:09;;;;;;;4.15;0.82;;;8.30;84.40;;;;;;5082634;28;20028;-82
2021/12/07 14:28:38;;;;;;;1.90;0.80;;;8.30;86.30;;;;;;5093440;28;20019;-82
2021/12/07 14:31:08;;;;;;;3.58;1.00;;;8.20;86.60;;;;;;5083814;28;20111;-82
2021/12/07 14:33:43;;;;;;;2.00;0.98;;;8.20;88.10;;;;;;5084494;28;20143;-81
2021/12/07 14:36:10;;;;;;;1.60;0.65;;;8.20;87.50;;;;;;5089570;28;20081;-81
2021/12/07 14:38:36;;;;;;;4.15;0.65;;;8.10;87.70;;;;;;5088291;28;20028;-78
2021/12/07 14:41:11;;;;;;;5.63;0.77;;;8.00;88.00;;;;;;5081993;28;20032;-82
2021/12/07 14:43:40;;;;;;;6.65;1.15;;;8.00;88.00;;;;;;5110407;27;20039;-81
2021/12/07 14:46:10;;;;;;;4.55;0.90;;;7.90;89.20;;;;;;5110313;28;20031;-81
2021/12/07 14:48:36;;;;;;;8.55;1.20;;;7.80;89.10;;;;;;5104459;28;20038;-81
2021/12/07 14:51:09;;;;;;;2.83;0.82;;;7.70;89.40;;;;;;5086971;28;20034;-81
2021/12/07 14:53:41;;;;;;;2.15;0.70;;;7.70;90.40;;;;;;5095109;28;20027;-81
2021/12/07 14:56:09;;;;;;;2.55;0.70;;;7.60;88.60;;;;;;5095184;28;20031;-80
2021/12/07 14:58:37;;;;;;;4.85;0.82;;;7.60;88.50;;;;;;5095365;28;20032;-81